Time;durP1;ratioP1;P1;durP2;ratioP2;P2;SDS_P1;SDS_P2;PMS_P1;PMS_P2;Temp;Humidity;BMP_temperature;BMP_pressure;BME280_temperature;BME280_humidity;BME280_pressure;Samples;Min_cycle;Max_cycle;Signal;HPM_P1;HPM_P2
2023/04/04 00:01:28;;;;;;;7.70;4.30;;;2.10;99.90;;;;;;5094692;28;20052;-78
2023/04/04 00:03:54;;;;;;;7.47;4.13;;;2.10;99.90;;;;;;5095213;28;20051;-77
2023/04/04 00:06:19;;;;;;;8.93;4.25;;;2.00;99.90;;;;;;5095146;28;20063;-77
2023/04/04 00:08:45;;;;;;;7.57;4.22;;;2.00;99.90;;;;;;5094332;28;20044;-77
2023/04/04 00:11:12;;;;;;;8.90;4.53;;;2.00;99.90;;;;;;5094687;28;20174;-77
2023/04/04 00:13:38;;;;;;;10.40;4.22;;;3.00;99.90;;;;;;5094701;28;20438;-77
2023/04/04 00:16:05;;;;;;;9.00;4.32;;;1.90;99.90;;;;;;5094580;28;20093;-78
2023/04/04 00:18:31;;;;;;;9.20;4.15;;;1.90;99.90;;;;;;5094515;28;20185;-77
2023/04/04 00:20:57;;;;;;;7.75;4.10;;;1.90;99.90;;;;;;5094490;28;20040;-78
2023/04/04 00:23:23;;;;;;;9.23;4.22;;;1.80;99.90;;;;;;5094471;28;20422;-78
2023/04/04 00:25:52;;;;;;;5.72;3.65;;;1.80;99.90;;;;;;5094476;28;20119;-78
2023/04/04 00:28:19;;;;;;;9.73;3.60;;;1.80;99.90;;;;;;5093096;28;20043;-77
2023/04/04 00:30:45;;;;;;;6.75;3.50;;;1.80;99.90;;;;;;5094280;28;20101;-78
2023/04/04 00:33:12;;;;;;;4.90;3.10;;;1.70;99.90;;;;;;5094408;28;20086;-79
2023/04/04 00:35:37;;;;;;;7.65;3.40;;;1.70;99.90;;;;;;5094196;28;20055;-78
2023/04/04 00:38:03;;;;;;;6.13;3.75;;;1.70;99.90;;;;;;5094228;28;20047;-77
2023/04/04 00:40:29;;;;;;;6.10;3.90;;;1.70;99.90;;;;;;5094176;28;20044;-78
2023/04/04 00:42:54;;;;;;;5.35;3.50;;;1.70;99.90;;;;;;5094058;28;20036;-78
2023/04/04 00:45:20;;;;;;;4.80;3.35;;;1.70;99.90;;;;;;5094106;28;20061;-78
2023/04/04 00:47:46;;;;;;;7.57;3.50;;;1.70;99.90;;;;;;5094276;28;20127;-79
2023/04/04 00:50:12;;;;;;;7.13;3.67;;;1.60;99.90;;;;;;5093755;28;20480;-78
2023/04/04 00:52:37;;;;;;;6.10;3.63;;;1.60;99.90;;;;;;5093966;28;20040;-78
2023/04/04 00:55:04;;;;;;;9.15;3.00;;;1.60;99.90;;;;;;5093991;28;20051;-78
2023/04/04 00:57:31;;;;;;;6.70;3.80;;;1.60;99.90;;;;;;5093935;28;20052;-78
2023/04/04 00:59:58;;;;;;;7.40;3.30;;;1.50;99.90;;;;;;5093787;28;20047;-78
2023/04/04 01:02:24;;;;;;;;;;;1.50;99.90;;;;;;5094593;28;20047;-79
2023/04/04 01:04:51;;;;;;;6.97;3.50;;;1.40;99.90;;;;;;5093894;28;20407;-79
2023/04/04 01:07:20;;;;;;;8.13;3.63;;;1.40;99.90;;;;;;5092602;28;20039;-77
2023/04/04 01:09:46;;;;;;;5.35;3.47;;;1.40;99.90;;;;;;5093525;28;20484;-79
2023/04/04 01:12:11;;;;;;;7.50;3.90;;;1.30;99.90;;;;;;5093732;28;20048;-78
2023/04/04 01:14:37;;;;;;;4.35;2.92;;;1.30;99.90;;;;;;5093705;28;20427;-78
2023/04/04 01:17:04;;;;;;;7.10;3.53;;;1.30;99.90;;;;;;5093641;28;20489;-78
2023/04/04 01:19:35;;;;;;;5.57;3.50;;;1.30;99.90;;;;;;5093612;28;20131;-78
2023/04/04 01:22:03;;;;;;;7.82;3.08;;;1.20;99.90;;;;;;5093932;28;20051;-77
2023/04/04 01:24:32;;;;;;;5.57;3.30;;;1.20;99.90;;;;;;5093694;28;20040;-77
2023/04/04 01:26:59;;;;;;;6.25;3.35;;;1.20;99.90;;;;;;5093710;28;20040;-78
2023/04/04 01:29:26;;;;;;;5.47;3.30;;;1.20;99.90;;;;;;5093593;28;20040;-77
2023/04/04 01:32:03;;;;;;;6.30;3.95;;;1.20;99.90;;;;;;5092902;28;20467;-77
2023/04/04 01:34:34;;;;;;;8.38;3.60;;;1.10;99.90;;;;;;5097739;28;20044;-77
2023/04/04 01:37:02;;;;;;;7.28;3.45;;;1.10;99.90;;;;;;5098841;28;20058;-78
2023/04/04 01:39:38;;;;;;;7.32;3.20;;;1.10;99.90;;;;;;5098754;28;20388;-77
2023/04/04 01:42:06;;;;;;;8.02;3.50;;;1.10;99.90;;;;;;5097650;28;20149;-78
2023/04/04 01:44:32;;;;;;;5.97;3.55;;;1.00;99.90;;;;;;5097229;28;20039;-78
2023/04/04 01:46:58;;;;;;;4.55;3.30;;;0.90;99.90;;;;;;5096468;28;20051;-78
2023/04/04 01:49:23;;;;;;;6.13;3.22;;;0.90;99.90;;;;;;5096990;28;20488;-77
2023/04/04 01:51:51;;;;;;;5.78;3.60;;;0.90;99.90;;;;;;5096478;28;20087;-76
2023/04/04 01:54:17;;;;;;;4.85;3.28;;;0.90;99.90;;;;;;5096175;28;20062;-77
2023/04/04 01:56:44;;;;;;;7.05;3.67;;;0.80;99.90;;;;;;5097699;28;20130;-78
2023/04/04 01:59:10;;;;;;;;;;;0.70;99.90;;;;;;5098052;28;20044;-78
2023/04/04 02:01:36;;;;;;;5.05;3.33;;;0.70;99.90;;;;;;5097264;28;20031;-77
2023/04/04 02:04:01;;;;;;;7.57;3.38;;;0.70;99.90;;;;;;5097143;28;20083;-78
2023/04/04 02:06:28;;;;;;;6.50;3.58;;;0.60;99.90;;;;;;5097081;28;20083;-77
2023/04/04 02:08:55;;;;;;;6.23;3.57;;;0.60;99.90;;;;;;5097096;28;20093;-77
2023/04/04 02:11:21;;;;;;;8.88;3.05;;;0.60;99.90;;;;;;5097090;28;20111;-78
2023/04/04 02:13:48;;;;;;;7.60;4.05;;;0.50;99.90;;;;;;5096938;28;20044;-78
2023/04/04 02:16:14;;;;;;;6.33;3.30;;;0.50;99.90;;;;;;5097155;28;20101;-78
2023/04/04 02:18:40;;;;;;;4.93;3.40;;;0.50;99.90;;;;;;5096758;28;20048;-77
2023/04/04 02:21:06;;;;;;;8.10;3.37;;;0.40;99.90;;;;;;5096813;28;20080;-77
2023/04/04 02:23:32;;;;;;;6.05;3.10;;;0.40;99.90;;;;;;5096899;28;20040;-77
2023/04/04 02:25:57;;;;;;;5.63;3.65;;;0.40;99.90;;;;;;5096697;28;20085;-77
2023/04/04 02:28:23;;;;;;;7.15;3.75;;;0.30;99.90;;;;;;5096669;28;20058;-77
2023/04/04 02:30:49;;;;;;;5.93;3.55;;;0.30;99.90;;;;;;5096685;28;20077;-77
2023/04/04 02:33:14;;;;;;;6.25;3.72;;;0.30;99.90;;;;;;5096563;28;20416;-77
2023/04/04 02:35:40;;;;;;;6.13;3.08;;;0.30;99.90;;;;;;5096824;28;20043;-77
2023/04/04 02:38:05;;;;;;;5.15;3.38;;;0.30;99.90;;;;;;5096695;28;20441;-77
2023/04/04 02:40:31;;;;;;;6.93;3.45;;;0.20;99.90;;;;;;5096356;28;20152;-78
2023/04/04 02:42:56;;;;;;;6.68;3.60;;;0.20;99.90;;;;;;5095204;28;20048;-77
2023/04/04 02:45:22;;;;;;;7.82;3.60;;;0.20;99.90;;;;;;5096201;28;20510;-77
2023/04/04 02:47:52;;;;;;;8.00;3.92;;;0.20;99.90;;;;;;5096138;28;20043;-77
2023/04/04 02:50:18;;;;;;;7.72;3.25;;;0.20;99.90;;;;;;5096502;28;20052;-77
2023/04/04 02:52:43;;;;;;;4.80;3.10;;;0.10;99.90;;;;;;5096407;28;20438;-77
2023/04/04 02:55:09;;;;;;;5.20;3.20;;;0.10;99.90;;;;;;5096103;28;20036;-77
2023/04/04 02:57:35;;;;;;;4.25;3.33;;;0.00;99.90;;;;;;5096174;28;20480;-77
2023/04/04 03:00:02;;;;;;;7.85;3.47;;;0.10;99.90;;;;;;5096112;28;20113;-77
2023/04/04 03:02:28;;;;;;;5.35;2.97;;;0.00;99.90;;;;;;5095662;28;20077;-78
2023/04/04 03:04:54;;;;;;;5.90;3.40;;;0.00;99.90;;;;;;5095136;28;20096;-77
2023/04/04 03:07:21;;;;;;;4.97;3.20;;;-0.10;99.90;;;;;;5095961;28;20380;-78
2023/04/04 03:09:47;;;;;;;5.68;3.05;;;-0.10;99.90;;;;;;5095859;28;20048;-77
2023/04/04 03:12:13;;;;;;;7.50;3.38;;;-0.20;99.90;;;;;;5095854;28;20040;-78
2023/04/04 03:14:39;;;;;;;5.00;3.38;;;-0.20;99.90;;;;;;5095917;28;20044;-79
2023/04/04 03:17:06;;;;;;;6.93;3.60;;;-0.20;99.90;;;;;;5095560;28;20518;-78
2023/04/04 03:19:32;;;;;;;10.68;3.05;;;-0.20;99.90;;;;;;5095729;28;20127;-77
2023/04/04 03:21:58;;;;;;;6.32;3.28;;;-0.30;99.90;;;;;;5095665;28;20075;-77
2023/04/04 03:24:24;;;;;;;10.35;3.80;;;-0.30;99.90;;;;;;5095443;28;20144;-78
2023/04/04 03:26:49;;;;;;;11.67;4.33;;;-0.30;99.90;;;;;;5095193;28;20066;-78
2023/04/04 03:29:15;;;;;;;8.15;3.78;;;-0.30;99.90;;;;;;5095417;28;20387;-78
2023/04/04 03:31:41;;;;;;;4.50;2.90;;;-0.30;99.90;;;;;;5095446;28;20078;-78
2023/04/04 03:34:08;;;;;;;6.40;3.35;;;-0.30;99.90;;;;;;5095409;28;20063;-78
2023/04/04 03:36:33;;;;;;;;;;;-0.40;99.90;;;;;;5095777;28;20054;-78
2023/04/04 03:38:59;;;;;;;5.18;2.85;;;-0.40;99.90;;;;;;5094049;28;20018;-79
2023/04/04 03:41:24;;;;;;;3.83;3.10;;;-0.40;99.90;;;;;;5095460;28;20042;-79
2023/04/04 03:43:50;;;;;;;8.27;3.53;;;-0.50;99.90;;;;;;5095434;28;20048;-77
2023/04/04 03:46:15;;;;;;;6.15;3.47;;;-0.50;99.90;;;;;;5095397;28;20079;-78
2023/04/04 03:48:41;;;;;;;4.40;3.10;;;-0.50;99.90;;;;;;5095092;28;20476;-78
2023/04/04 03:51:07;;;;;;;6.93;3.83;;;-0.50;99.90;;;;;;5095071;28;20032;-77
2023/04/04 03:53:34;;;;;;;6.40;3.40;;;0.30;99.90;;;;;;5094978;28;20100;-78
2023/04/04 03:56:00;;;;;;;5.22;3.25;;;-0.50;99.90;;;;;;5094475;28;20100;-78
2023/04/04 03:58:27;;;;;;;5.32;3.40;;;-0.50;99.90;;;;;;5094926;28;20474;-78
2023/04/04 04:00:53;;;;;;;5.35;3.55;;;-0.50;99.90;;;;;;5094823;28;20244;-78
2023/04/04 04:03:20;;;;;;;7.45;3.28;;;-0.60;99.90;;;;;;5095009;28;20044;-78
2023/04/04 04:05:46;;;;;;;4.32;3.30;;;-0.60;99.90;;;;;;5094746;28;20052;-79
2023/04/04 04:08:12;;;;;;;6.37;3.10;;;-0.60;99.90;;;;;;5094808;28;20047;-77
2023/04/04 04:10:38;;;;;;;4.47;2.63;;;-0.50;99.90;;;;;;5094822;28;20055;-78
2023/04/04 04:13:03;;;;;;;4.97;2.90;;;-0.50;99.90;;;;;;5093914;28;20373;-78
2023/04/04 04:15:29;;;;;;;6.22;3.20;;;-0.60;99.90;;;;;;5093412;28;20086;-78
2023/04/04 04:17:55;;;;;;;5.32;2.70;;;-0.60;99.90;;;;;;5094630;28;20036;-78
2023/04/04 04:20:21;;;;;;;5.30;2.85;;;-0.70;99.90;;;;;;5094510;28;20062;-77
2023/04/04 04:22:47;;;;;;;5.43;3.42;;;-0.70;99.90;;;;;;5094173;28;20495;-78
2023/04/04 04:25:14;;;;;;;5.05;3.20;;;-0.70;99.90;;;;;;5094511;28;20059;-78
2023/04/04 04:27:40;;;;;;;4.00;3.05;;;-0.60;99.90;;;;;;5094430;28;20383;-78
2023/04/04 04:30:07;;;;;;;4.20;2.80;;;-0.60;99.90;;;;;;5094904;28;20491;-79
2023/04/04 04:32:32;;;;;;;;;;;-0.60;99.90;;;;;;5094734;28;20040;-79
2023/04/04 04:34:58;;;;;;;5.65;3.20;;;-0.60;99.90;;;;;;5094502;28;19947;-78
2023/04/04 04:37:25;;;;;;;6.60;3.20;;;-0.60;99.90;;;;;;5094056;28;20472;-78
2023/04/04 04:39:51;;;;;;;7.88;3.40;;;-0.70;99.90;;;;;;5093180;28;20051;-78
2023/04/04 04:42:16;;;;;;;5.77;3.47;;;-0.60;99.90;;;;;;5094088;28;20040;-78
2023/04/04 04:44:42;;;;;;;4.13;3.03;;;-0.70;99.90;;;;;;5094037;28;20395;-79
2023/04/04 04:47:08;;;;;;;9.15;3.38;;;-0.70;99.90;;;;;;5094000;28;20051;-78
2023/04/04 04:49:34;;;;;;;5.03;2.88;;;0.30;99.90;;;;;;5094070;28;20056;-78
2023/04/04 04:52:01;;;;;;;5.90;2.90;;;-0.70;99.90;;;;;;5092583;28;20044;-78
2023/04/04 04:54:27;;;;;;;6.97;3.22;;;-0.70;99.90;;;;;;5093287;28;20055;-78
2023/04/04 04:56:52;;;;;;;6.75;2.88;;;-0.80;99.90;;;;;;5093932;28;20044;-78
2023/04/04 04:59:18;;;;;;;5.53;3.08;;;-0.80;99.90;;;;;;5094130;28;20058;-78
2023/04/04 05:01:44;;;;;;;6.30;3.05;;;-0.80;99.90;;;;;;5093741;28;20039;-78
2023/04/04 05:04:09;;;;;;;6.05;3.20;;;-0.80;99.90;;;;;;5093645;28;20048;-79
2023/04/04 05:06:36;;;;;;;7.85;3.40;;;-0.80;99.90;;;;;;5092563;28;20384;-81
2023/04/04 05:09:02;;;;;;;;;;;-0.20;99.90;;;;;;5093232;28;20052;-80
2023/04/04 05:11:30;;;;;;;5.07;3.78;;;-0.80;99.90;;;;;;5093816;28;19920;-78
2023/04/04 05:13:56;;;;;;;6.03;3.00;;;-0.80;99.90;;;;;;5093429;28;20139;-77
2023/04/04 05:16:22;;;;;;;6.13;3.00;;;-0.80;99.90;;;;;;5093517;28;20083;-81
2023/04/04 05:18:47;;;;;;;7.88;3.33;;;-0.70;99.90;;;;;;5075763;28;20426;-79
2023/04/04 05:21:13;;;;;;;5.40;3.28;;;-0.70;99.90;;;;;;5093508;28;20040;-79
2023/04/04 05:23:38;;;;;;;8.43;3.20;;;-0.70;99.90;;;;;;5093517;28;20500;-79
2023/04/04 05:26:04;;;;;;;6.05;3.22;;;-0.70;99.90;;;;;;5093554;28;20047;-77
2023/04/04 05:28:30;;;;;;;4.22;3.28;;;-0.60;99.90;;;;;;5093606;28;20048;-80
2023/04/04 05:30:55;;;;;;;6.13;3.25;;;-0.60;99.90;;;;;;5092696;28;20040;-79
2023/04/04 05:33:22;;;;;;;4.22;3.13;;;-0.60;99.90;;;;;;5093571;28;20048;-79
2023/04/04 05:35:48;;;;;;;5.20;3.08;;;0.30;99.90;;;;;;5093441;28;20101;-79
2023/04/04 05:38:13;;;;;;;6.00;3.55;;;-0.60;99.90;;;;;;5093612;28;20480;-77
2023/04/04 05:40:39;;;;;;;5.72;3.58;;;-0.50;99.90;;;;;;5093451;28;20048;-80
2023/04/04 05:43:05;;;;;;;5.72;3.35;;;-0.50;99.90;;;;;;5075274;28;20546;-78
2023/04/04 05:45:31;;;;;;;6.67;3.63;;;-0.50;99.90;;;;;;5092704;28;20036;-79
2023/04/04 05:47:56;;;;;;;4.35;3.55;;;-0.50;99.90;;;;;;5092678;28;20530;-79
2023/04/04 05:50:22;;;;;;;6.65;3.42;;;-0.40;99.90;;;;;;5091657;28;20052;-81
2023/04/04 05:52:47;;;;;;;7.20;3.22;;;-0.40;99.90;;;;;;5092983;28;20036;-77
2023/04/04 05:55:13;;;;;;;6.80;3.60;;;-0.30;99.90;;;;;;5093223;28;20044;-79
2023/04/04 05:57:51;;;;;;;5.65;3.45;;;-0.20;99.90;;;;;;5093093;28;20067;-79
2023/04/04 06:00:18;;;;;;;6.05;3.88;;;0.00;99.90;;;;;;5093363;28;20097;-77
2023/04/04 06:02:44;;;;;;;7.18;3.28;;;-0.10;99.90;;;;;;5093128;28;20036;-79
2023/04/04 06:05:10;;;;;;;6.20;4.03;;;0.00;99.90;;;;;;5093139;28;20040;-76
2023/04/04 06:07:36;;;;;;;5.47;3.10;;;0.10;99.90;;;;;;5093045;28;20044;-78
2023/04/04 06:10:06;;;;;;;4.60;3.00;;;0.50;99.90;;;;;;5093128;28;20040;-77
2023/04/04 06:12:32;;;;;;;4.07;2.85;;;0.30;99.90;;;;;;5092972;28;20750;-80
2023/04/04 06:14:57;;;;;;;5.95;3.30;;;0.40;99.90;;;;;;5093360;28;20085;-81
2023/04/04 06:17:24;;;;;;;4.30;2.80;;;0.50;99.90;;;;;;5093204;28;20044;-78
2023/04/04 06:19:49;;;;;;;5.72;2.90;;;0.60;99.90;;;;;;5094863;28;20047;-77
2023/04/04 06:22:16;;;;;;;7.20;3.58;;;0.70;99.90;;;;;;5096501;28;20122;-77
2023/04/04 06:24:42;;;;;;;6.13;2.53;;;1.60;99.90;;;;;;5096819;28;20109;-78
2023/04/04 06:27:07;;;;;;;5.55;2.80;;;1.00;99.90;;;;;;5096789;28;20066;-77
2023/04/04 06:29:33;;;;;;;4.38;2.90;;;1.10;99.90;;;;;;5096617;28;20503;-77
2023/04/04 06:31:59;;;;;;;4.85;2.83;;;1.20;99.90;;;;;;5096613;28;20036;-77
2023/04/04 06:34:25;;;;;;;5.60;2.72;;;1.30;99.90;;;;;;5096531;28;20040;-77
2023/04/04 06:36:51;;;;;;;7.20;2.80;;;1.40;99.90;;;;;;5096253;28;20051;-77
2023/04/04 06:39:16;;;;;;;5.55;3.00;;;1.50;99.90;;;;;;5096340;28;20052;-77
2023/04/04 06:41:42;;;;;;;5.20;2.95;;;1.60;99.90;;;;;;5096478;28;20047;-78
2023/04/04 06:44:08;;;;;;;3.47;2.58;;;1.70;99.90;;;;;;5096448;28;20044;-77
2023/04/04 06:46:36;;;;;;;8.25;2.83;;;1.80;99.90;;;;;;5096296;28;20071;-77
2023/04/04 06:49:01;;;;;;;5.90;3.25;;;1.90;99.90;;;;;;5096412;28;20067;-78
2023/04/04 06:51:27;;;;;;;8.63;3.22;;;2.00;99.90;;;;;;5095959;28;20044;-77
2023/04/04 06:53:55;;;;;;;4.95;2.58;;;2.10;99.90;;;;;;5096260;28;20090;-77
2023/04/04 06:56:21;;;;;;;8.77;3.38;;;2.20;99.90;;;;;;5096571;28;20131;-77
2023/04/04 06:58:47;;;;;;;6.60;3.03;;;2.20;99.90;;;;;;5096114;28;20055;-77
2023/04/04 07:01:13;;;;;;;6.90;2.67;;;2.30;99.90;;;;;;5095943;28;20294;-76
2023/04/04 07:03:38;;;;;;;5.72;3.05;;;2.40;99.90;;;;;;5096185;28;20040;-77
2023/04/04 07:06:04;;;;;;;6.20;3.22;;;2.50;99.90;;;;;;5095639;28;20075;-76
2023/04/04 07:08:32;;;;;;;6.95;2.85;;;2.50;99.90;;;;;;5095846;28;20046;-77
2023/04/04 07:10:58;;;;;;;5.22;2.47;;;2.70;99.90;;;;;;5095643;28;20499;-77
2023/04/04 07:13:24;;;;;;;4.38;2.92;;;2.80;99.90;;;;;;5096150;28;20044;-77
2023/04/04 07:15:49;;;;;;;9.10;3.17;;;2.90;99.90;;;;;;5096062;28;20551;-77
2023/04/04 07:18:15;;;;;;;5.13;3.17;;;3.00;99.90;;;;;;5095548;28;20337;-77
2023/04/04 07:20:42;;;;;;;6.32;2.67;;;3.10;99.90;;;;;;5096173;28;20081;-77
2023/04/04 07:23:10;;;;;;;6.20;2.72;;;3.20;99.90;;;;;;5095600;28;20095;-78
2023/04/04 07:25:39;;;;;;;4.22;2.35;;;3.30;99.90;;;;;;5096129;28;20044;-78
2023/04/04 07:28:04;;;;;;;4.63;2.80;;;3.40;99.90;;;;;;5095585;28;20044;-77
2023/04/04 07:30:31;;;;;;;5.97;2.70;;;3.50;99.90;;;;;;5094610;28;20541;-77
2023/04/04 07:32:58;;;;;;;;;;;3.50;99.90;;;;;;5095842;28;20048;-78
2023/04/04 07:35:23;;;;;;;3.67;2.40;;;3.70;99.90;;;;;;5094040;28;20287;-77
2023/04/04 07:37:49;;;;;;;8.18;2.83;;;3.70;99.90;;;;;;5095318;28;20048;-76
2023/04/04 07:40:15;;;;;;;6.70;2.10;;;3.80;99.90;;;;;;5095717;28;20044;-77
2023/04/04 07:42:50;;;;;;;4.90;2.42;;;3.90;99.90;;;;;;5095275;28;20162;-77
2023/04/04 07:45:16;;;;;;;3.83;2.00;;;4.20;99.90;;;;;;5095221;28;20044;-77
2023/04/04 07:47:45;;;;;;;7.20;2.15;;;4.00;99.90;;;;;;5095073;28;20043;-77
2023/04/04 07:50:14;;;;;;;4.35;2.28;;;4.00;99.90;;;;;;5095142;28;20395;-77
2023/04/04 07:52:41;;;;;;;4.30;2.30;;;4.10;99.90;;;;;;5094997;28;20381;-77
2023/04/04 07:55:07;;;;;;;7.45;2.28;;;4.20;99.90;;;;;;5094831;28;20059;-77
2023/04/04 07:57:38;;;;;;;6.40;2.58;;;4.30;99.90;;;;;;5095055;28;20055;-77
2023/04/04 08:00:05;;;;;;;5.10;2.22;;;4.40;99.90;;;;;;5094926;28;20076;-77
2023/04/04 08:02:31;;;;;;;5.55;2.55;;;4.50;99.90;;;;;;5094647;28;20040;-75
2023/04/04 08:04:56;;;;;;;9.30;2.25;;;4.60;99.90;;;;;;5094914;28;20044;-76
2023/04/04 08:07:22;;;;;;;6.20;2.40;;;4.70;99.90;;;;;;5110903;28;20043;-76
2023/04/04 08:09:48;;;;;;;6.70;2.78;;;4.60;99.90;;;;;;5094015;28;20093;-76
2023/04/04 08:12:13;;;;;;;9.35;2.42;;;4.70;99.90;;;;;;5094712;28;20044;-77
2023/04/04 08:14:39;;;;;;;5.80;2.58;;;4.70;99.90;;;;;;5094619;28;20207;-75
2023/04/04 08:17:05;;;;;;;5.65;2.40;;;4.70;99.90;;;;;;5095381;28;20047;-79
2023/04/04 08:19:32;;;;;;;5.30;2.60;;;4.80;99.90;;;;;;5094340;28;20039;-87
2023/04/04 08:22:08;;;;;;;4.97;2.28;;;4.90;99.90;;;;;;5095146;28;20127;-78
2023/04/04 08:24:35;;;;;;;3.97;2.58;;;5.10;99.90;;;;;;5095132;28;20101;-76
2023/04/04 08:27:02;;;;;;;6.03;2.22;;;5.20;99.90;;;;;;5095199;28;20063;-76
2023/04/04 08:29:30;;;;;;;3.38;2.13;;;5.30;99.90;;;;;;5095328;28;20051;-77
2023/04/04 08:31:56;;;;;;;4.32;2.20;;;5.40;99.90;;;;;;5095069;28;20052;-81
2023/04/04 08:34:22;;;;;;;4.60;2.37;;;5.50;99.90;;;;;;5099643;28;20040;-78
2023/04/04 08:36:48;;;;;;;4.85;2.40;;;5.90;99.90;;;;;;5108732;28;20278;-77
2023/04/04 08:39:13;;;;;;;4.68;2.20;;;5.70;99.90;;;;;;5103077;28;20078;-78
2023/04/04 08:41:44;;;;;;;8.45;2.35;;;5.80;99.90;;;;;;5094571;28;20040;-77
2023/04/04 08:44:16;;;;;;;6.65;2.35;;;6.00;99.90;;;;;;5094196;28;20055;-79
2023/04/04 08:46:44;;;;;;;3.95;2.00;;;6.20;99.90;;;;;;5094615;28;20040;-78
2023/04/04 08:49:13;;;;;;;2.78;2.03;;;6.30;99.90;;;;;;5094004;28;20056;-77
2023/04/04 08:51:40;;;;;;;3.58;1.73;;;6.40;99.90;;;;;;5094440;28;20097;-77
2023/04/04 08:54:07;;;;;;;3.45;1.80;;;6.50;99.90;;;;;;5093970;28;20137;-77
2023/04/04 08:56:34;;;;;;;3.15;2.00;;;6.50;99.90;;;;;;5093991;28;20051;-80
2023/04/04 08:59:00;;;;;;;5.68;1.60;;;6.60;99.90;;;;;;5093765;28;20052;-78
2023/04/04 09:01:28;;;;;;;4.60;2.22;;;6.60;99.90;;;;;;5093850;28;20044;-77
2023/04/04 09:03:55;;;;;;;3.95;2.10;;;6.60;99.90;;;;;;5093835;28;20438;-77
2023/04/04 09:06:22;;;;;;;2.53;1.70;;;7.40;99.90;;;;;;5093800;28;20083;-77
2023/04/04 09:08:48;;;;;;;7.03;1.75;;;6.70;99.90;;;;;;5093777;28;20087;-77
2023/04/04 09:11:16;;;;;;;2.38;1.63;;;6.80;99.90;;;;;;5093398;28;20035;-77
2023/04/04 09:13:44;;;;;;;3.22;1.80;;;6.90;99.90;;;;;;5093742;28;20061;-77
2023/04/04 09:16:10;;;;;;;5.07;1.88;;;7.10;99.90;;;;;;5094153;28;20050;-78
2023/04/04 09:18:36;;;;;;;3.90;1.77;;;7.10;99.90;;;;;;5093467;28;20048;-78
2023/04/04 09:21:11;;;;;;;3.35;1.90;;;7.10;99.90;;;;;;5093746;28;20058;-78
2023/04/04 09:23:37;;;;;;;3.45;1.63;;;7.20;99.90;;;;;;5093574;28;20036;-77
2023/04/04 09:26:03;;;;;;;5.43;1.90;;;7.70;99.90;;;;;;5093671;28;20032;-78
2023/04/04 09:28:29;;;;;;;4.30;2.07;;;7.30;99.90;;;;;;5093088;28;20437;-78
2023/04/04 09:30:55;;;;;;;3.53;1.80;;;7.90;99.90;;;;;;5093474;28;20090;-77
2023/04/04 09:33:25;;;;;;;4.18;2.13;;;7.20;99.90;;;;;;5093352;28;20048;-77
2023/04/04 09:35:54;;;;;;;7.40;2.05;;;7.30;99.90;;;;;;5093632;28;20055;-78
2023/04/04 09:38:22;;;;;;;3.97;2.13;;;7.30;99.90;;;;;;5093463;28;20055;-78
2023/04/04 09:40:48;;;;;;;6.22;1.85;;;7.40;99.90;;;;;;5093225;28;20055;-79
2023/04/04 09:43:15;;;;;;;3.23;1.90;;;7.20;99.90;;;;;;5093274;28;20059;-77
2023/04/04 09:45:43;;;;;;;2.88;2.42;;;7.50;99.90;;;;;;5093529;28;20048;-77
2023/04/04 09:48:09;;;;;;;3.90;1.98;;;7.50;99.90;;;;;;5091782;28;20056;-78
2023/04/04 09:50:36;;;;;;;5.63;2.10;;;7.60;99.90;;;;;;5093217;28;20048;-78
2023/04/04 09:53:02;;;;;;;4.78;1.77;;;8.10;99.90;;;;;;5092152;28;20032;-77
2023/04/04 09:55:35;;;;;;;4.80;2.25;;;7.70;99.90;;;;;;5095959;28;20049;-78
2023/04/04 09:58:17;;;;;;;6.78;2.63;;;7.80;99.90;;;;;;5097391;28;20491;-78
2023/04/04 10:00:47;;;;;;;4.47;2.00;;;7.90;99.90;;;;;;5097314;28;20040;-78
2023/04/04 10:03:17;;;;;;;3.35;2.05;;;8.10;99.90;;;;;;5097167;28;20377;-79
2023/04/04 10:05:47;;;;;;;4.22;1.85;;;8.00;99.70;;;;;;5097230;28;20404;-77
2023/04/04 10:08:21;;;;;;;6.45;2.28;;;7.80;99.10;;;;;;5097076;28;20406;-78
2023/04/04 10:10:48;;;;;;;2.85;1.80;;;8.60;99.90;;;;;;5096841;28;20432;-78
2023/04/04 10:13:21;;;;;;;;;;;8.00;99.90;;;;;;5097468;28;20422;-78
2023/04/04 10:15:47;;;;;;;3.58;2.13;;;8.10;99.90;;;;;;5096986;28;19920;-78
2023/04/04 10:18:14;;;;;;;4.22;2.08;;;8.10;99.10;;;;;;5096793;28;20048;-77
2023/04/04 10:20:42;;;;;;;5.75;1.88;;;8.20;98.70;;;;;;5096812;28;20044;-77
2023/04/04 10:23:07;;;;;;;9.90;1.95;;;8.00;99.30;;;;;;5096834;28;20040;-76
2023/04/04 10:25:35;;;;;;;4.20;2.05;;;8.10;99.40;;;;;;5095676;28;20162;-77
2023/04/04 10:28:01;;;;;;;11.63;3.83;;;8.20;99.00;;;;;;5096743;28;20440;-77
2023/04/04 10:30:27;;;;;;;4.50;2.22;;;8.70;98.70;;;;;;5096806;28;20080;-76
2023/04/04 10:33:05;;;;;;;3.05;1.83;;;8.50;99.20;;;;;;5096733;28;20071;-76
2023/04/04 10:35:33;;;;;;;3.38;1.75;;;8.90;97.70;;;;;;5096389;28;20432;-77
2023/04/04 10:38:02;;;;;;;4.45;1.65;;;9.20;96.40;;;;;;5096426;28;20095;-77
2023/04/04 10:40:34;;;;;;;3.95;1.80;;;8.50;97.30;;;;;;5096474;28;20131;-78
2023/04/04 10:43:03;;;;;;;3.65;1.95;;;8.60;96.90;;;;;;5095967;28;20559;-78
2023/04/04 10:45:31;;;;;;;5.10;2.15;;;8.60;96.00;;;;;;5096183;28;20074;-78
2023/04/04 10:47:58;;;;;;;4.85;1.80;;;8.70;96.90;;;;;;5095119;28;20039;-77
2023/04/04 10:50:24;;;;;;;6.72;2.00;;;8.80;95.20;;;;;;5096937;28;20123;-77
2023/04/04 10:52:51;;;;;;;4.55;1.95;;;8.90;95.60;;;;;;5096264;28;20077;-77
2023/04/04 10:55:17;;;;;;;4.28;1.75;;;8.90;94.80;;;;;;5096452;28;20493;-78
2023/04/04 10:57:46;;;;;;;4.03;2.03;;;8.90;93.90;;;;;;5096152;28;20499;-78
2023/04/04 11:00:16;;;;;;;2.70;1.83;;;8.70;94.10;;;;;;5095966;28;20048;-78
2023/04/04 11:02:50;;;;;;;3.17;1.75;;;8.70;94.40;;;;;;5096056;28;20044;-78
2023/04/04 11:05:22;;;;;;;2.47;1.50;;;8.90;93.60;;;;;;5095108;28;20070;-77
2023/04/04 11:07:53;;;;;;;3.92;1.58;;;9.00;92.30;;;;;;5095496;28;20040;-78
2023/04/04 11:10:28;;;;;;;2.88;1.55;;;9.70;92.70;;;;;;5096009;28;20059;-79
2023/04/04 11:12:56;;;;;;;3.35;1.45;;;9.50;91.90;;;;;;5078511;28;20063;-77
2023/04/04 11:15:26;;;;;;;4.15;1.67;;;9.10;92.50;;;;;;5094364;28;20052;-77
2023/04/04 11:18:00;;;;;;;2.50;1.52;;;9.20;91.20;;;;;;5095533;28;20050;-78
2023/04/04 11:20:33;;;;;;;3.15;1.50;;;9.30;91.10;;;;;;5095596;28;20043;-79
2023/04/04 11:23:13;;;;;;;2.95;1.73;;;9.40;91.80;;;;;;5095263;28;20058;-77
2023/04/04 11:25:52;;;;;;;2.60;1.70;;;9.50;91.10;;;;;;5095774;28;20385;-77
2023/04/04 11:28:33;;;;;;;4.38;1.58;;;9.50;91.60;;;;;;5095620;28;20097;-79
2023/04/04 11:31:20;;;;;;;3.78;1.80;;;9.60;91.90;;;;;;5095459;28;20059;-77
2023/04/04 11:33:59;;;;;;;4.13;1.85;;;10.10;90.60;;;;;;5095935;28;20040;-77
2023/04/04 11:36:36;;;;;;;3.60;1.60;;;9.50;90.00;;;;;;5095836;28;20036;-77
2023/04/04 11:39:13;;;;;;;5.25;1.92;;;9.60;89.40;;;;;;5095387;28;20055;-77
2023/04/04 11:41:51;;;;;;;4.65;1.60;;;9.60;91.60;;;;;;5094090;28;20083;-78
2023/04/04 11:44:17;;;;;;;3.33;1.90;;;9.70;90.70;;;;;;5095272;28;20052;-77
2023/04/04 11:46:46;;;;;;;2.67;1.50;;;9.60;91.10;;;;;;5095265;28;20050;-78
2023/04/04 11:49:13;;;;;;;3.72;1.83;;;9.50;89.40;;;;;;5094992;28;20044;-77
2023/04/04 11:51:40;;;;;;;3.13;1.70;;;9.50;91.30;;;;;;5095125;28;20048;-77
2023/04/04 11:54:15;;;;;;;5.75;2.00;;;9.50;89.90;;;;;;5095195;28;20508;-78
2023/04/04 11:56:44;;;;;;;3.17;1.70;;;9.60;91.00;;;;;;5095174;28;20048;-79
2023/04/04 11:59:18;;;;;;;5.05;1.98;;;9.60;91.60;;;;;;5095084;28;20051;-78
2023/04/04 12:01:44;;;;;;;4.45;1.80;;;9.70;91.30;;;;;;5093810;28;20051;-78
2023/04/04 12:04:10;;;;;;;3.57;1.70;;;9.80;91.60;;;;;;5094884;28;20427;-78
2023/04/04 12:06:37;;;;;;;4.60;2.03;;;10.00;90.50;;;;;;5094842;28;20046;-78
2023/04/04 12:09:04;;;;;;;2.75;1.50;;;10.30;89.80;;;;;;5094692;28;20391;-78
2023/04/04 12:11:33;;;;;;;2.58;1.77;;;10.30;89.30;;;;;;5095222;28;20059;-78
2023/04/04 12:13:59;;;;;;;3.70;1.60;;;10.30;89.20;;;;;;5094667;28;20442;-77
2023/04/04 12:16:27;;;;;;;3.65;1.70;;;10.30;85.60;;;;;;5094561;28;20423;-78
2023/04/04 12:18:52;;;;;;;2.83;1.70;;;10.30;86.00;;;;;;5094436;28;20090;-78
2023/04/04 12:21:19;;;;;;;4.03;1.90;;;10.10;86.10;;;;;;5094395;28;20083;-77
2023/04/04 12:23:47;;;;;;;3.13;1.40;;;10.30;88.70;;;;;;5094587;28;20044;-79
2023/04/04 12:26:14;;;;;;;6.78;1.40;;;10.10;84.00;;;;;;5094419;28;20079;-78
2023/04/04 12:28:42;;;;;;;3.15;1.70;;;10.20;85.10;;;;;;5093190;28;20504;-78
2023/04/04 12:31:08;;;;;;;3.03;1.52;;;10.30;83.00;;;;;;5094432;28;20042;-78
2023/04/04 12:33:34;;;;;;;3.33;1.47;;;10.50;79.00;;;;;;5094590;28;20059;-78
2023/04/04 12:36:02;;;;;;;2.70;1.87;;;10.60;84.60;;;;;;5094088;28;20052;-78
2023/04/04 12:38:29;;;;;;;4.80;1.73;;;10.70;84.10;;;;;;5094263;28;20357;-78
2023/04/04 12:40:56;;;;;;;5.90;1.60;;;10.90;82.20;;;;;;5094302;28;20400;-78
2023/04/04 12:43:21;;;;;;;3.40;1.40;;;10.90;80.10;;;;;;5094288;28;20051;-77
2023/04/04 12:45:50;;;;;;;6.22;1.92;;;10.90;83.00;;;;;;5094404;28;20048;-77
2023/04/04 12:48:21;;;;;;;3.03;1.40;;;10.70;84.60;;;;;;5094268;28;20060;-78
2023/04/04 12:50:58;;;;;;;3.22;1.70;;;11.00;83.60;;;;;;5094175;28;20048;-78
2023/04/04 12:53:26;;;;;;;3.60;1.50;;;10.60;80.40;;;;;;5094543;28;20051;-78
2023/04/04 12:55:54;;;;;;;4.30;1.50;;;10.50;80.50;;;;;;5093908;28;20054;-79